Nellis AFB, Nevada
Current Conditions -  °F | °C
As of 4:58 PM on Saturday 25 Oct 2014 (Local Time) from KLSV Reporting Station
Clear Clear  
Wind Chill: 85°   Ceiling: Unl
Heat Index: 85°   Visibility: 10mi
Dew Point: 42°   Wind: 21mph
Humidity: 22%   Direction: 230°SW
Pressure: 29.9"   Gusts: NA
Location:  36.24°N, 115.03°W
Report Text: KLSV 252358Z AUTO 23018KT 10SM CLR 30/05 A2990 RMK AO2 PK WND 23027/29 SLP107 T02950054 10307 20277 57017 $
Loading
Personal Weather Stations






























Interactive Weather Map
Tropical Storm Tracking
New forecast layout! Learn more

10-Day Weather Forecast

Advertisements
Track Severe Weather on mobile